Zhongxiang, China
Current Conditions -  °F | °C
As of 9:00 AM on Thursday 27 Nov 2014 (Local Time) from ZHHH Reporting Station
Light Rain Light Rain  
Wind Chill: 52°   Ceiling: Unl
Heat Index: 52°   Visibility: 2.5mi
Dew Point: 52°   Wind: 9mph
Humidity: 100%   Direction: 70°ENE
Pressure: 30"   Gusts: NA
Location:  31.17°N, 112.57°E
Report Text: ZHHH 270100Z 07004MPS 4000 -RA BR SCT015 11/11 Q1016 NOSIG
Loading
Personal Weather Stations






























Interactive Weather Map New forecast layout! Learn more

10-Day Weather Forecast

Advertisements
Track Severe Weather on mobile